sensor_id;sensor_type;location;lat;lon;timestamp;P1;durP1;ratioP1;P2;durP2;ratioP2
50281;SDS011;36176;51.506;10.272;2024-01-27T00:00:22;9.47;;;2.67;;
50281;SDS011;36176;51.506;10.272;2024-01-27T00:02:52;7.63;;;2.70;;
50281;SDS011;36176;51.506;10.272;2024-01-27T00:05:20;11.17;;;2.63;;
50281;SDS011;36176;51.506;10.272;2024-01-27T00:07:47;11.90;;;2.53;;
50281;SDS011;36176;51.506;10.272;2024-01-27T00:10:15;7.50;;;2.50;;
50281;SDS011;36176;51.506;10.272;2024-01-27T00:12:42;9.50;;;2.70;;
50281;SDS011;36176;51.506;10.272;2024-01-27T00:15:09;11.07;;;2.90;;
50281;SDS011;36176;51.506;10.272;2024-01-27T00:17:36;8.03;;;2.80;;
50281;SDS011;36176;51.506;10.272;2024-01-27T00:20:04;11.50;;;2.63;;
50281;SDS011;36176;51.506;10.272;2024-01-27T00:22:31;9.87;;;2.47;;
50281;SDS011;36176;51.506;10.272;2024-01-27T00:24:58;11.47;;;2.80;;
50281;SDS011;36176;51.506;10.272;2024-01-27T00:27:25;8.83;;;2.60;;
50281;SDS011;36176;51.506;10.272;2024-01-27T00:29:52;10.47;;;2.80;;
50281;SDS011;36176;51.506;10.272;2024-01-27T00:32:20;8.70;;;2.30;;
50281;SDS011;36176;51.506;10.272;2024-01-27T00:34:47;8.03;;;2.63;;
50281;SDS011;36176;51.506;10.272;2024-01-27T00:37:14;11.03;;;2.57;;
50281;SDS011;36176;51.506;10.272;2024-01-27T00:39:41;10.40;;;2.57;;
50281;SDS011;36176;51.506;10.272;2024-01-27T00:42:08;11.80;;;3.00;;
50281;SDS011;36176;51.506;10.272;2024-01-27T00:44:35;8.83;;;2.40;;
50281;SDS011;36176;51.506;10.272;2024-01-27T00:47:02;12.57;;;2.90;;
50281;SDS011;36176;51.506;10.272;2024-01-27T00:49:30;10.13;;;2.70;;
50281;SDS011;36176;51.506;10.272;2024-01-27T00:51:58;10.23;;;2.73;;
50281;SDS011;36176;51.506;10.272;2024-01-27T00:54:25;10.00;;;3.03;;
50281;SDS011;36176;51.506;10.272;2024-01-27T00:59:40;6.73;;;2.20;;
50281;SDS011;36176;51.506;10.272;2024-01-27T01:02:07;7.13;;;2.50;;
50281;SDS011;36176;51.506;10.272;2024-01-27T01:04:34;10.73;;;2.70;;
50281;SDS011;36176;51.506;10.272;2024-01-27T01:07:01;9.27;;;2.53;;
50281;SDS011;36176;51.506;10.272;2024-01-27T01:09:29;12.47;;;2.77;;
50281;SDS011;36176;51.506;10.272;2024-01-27T01:11:56;9.73;;;2.70;;
50281;SDS011;36176;51.506;10.272;2024-01-27T01:14:24;10.77;;;2.80;;
50281;SDS011;36176;51.506;10.272;2024-01-27T01:16:51;9.87;;;2.50;;
50281;SDS011;36176;51.506;10.272;2024-01-27T01:19:18;8.70;;;2.80;;
50281;SDS011;36176;51.506;10.272;2024-01-27T01:21:45;12.77;;;2.77;;
50281;SDS011;36176;51.506;10.272;2024-01-27T01:24:12;8.87;;;2.73;;
50281;SDS011;36176;51.506;10.272;2024-01-27T01:26:39;11.33;;;2.77;;
50281;SDS011;36176;51.506;10.272;2024-01-27T01:29:06;12.67;;;2.77;;
50281;SDS011;36176;51.506;10.272;2024-01-27T01:31:33;11.53;;;2.87;;
50281;SDS011;36176;51.506;10.272;2024-01-27T01:34:00;8.93;;;2.83;;
50281;SDS011;36176;51.506;10.272;2024-01-27T01:36:27;11.07;;;3.10;;
50281;SDS011;36176;51.506;10.272;2024-01-27T01:38:55;13.40;;;3.10;;
50281;SDS011;36176;51.506;10.272;2024-01-27T01:41:22;11.77;;;3.10;;
50281;SDS011;36176;51.506;10.272;2024-01-27T01:43:49;10.77;;;3.20;;
50281;SDS011;36176;51.506;10.272;2024-01-27T01:46:16;9.83;;;2.73;;
50281;SDS011;36176;51.506;10.272;2024-01-27T01:48:44;8.60;;;2.60;;
50281;SDS011;36176;51.506;10.272;2024-01-27T01:51:11;10.63;;;2.80;;
50281;SDS011;36176;51.506;10.272;2024-01-27T01:53:39;9.07;;;3.10;;
50281;SDS011;36176;51.506;10.272;2024-01-27T01:56:06;11.33;;;3.10;;
50281;SDS011;36176;51.506;10.272;2024-01-27T01:58:34;10.43;;;2.93;;
50281;SDS011;36176;51.506;10.272;2024-01-27T02:01:01;9.40;;;3.00;;
50281;SDS011;36176;51.506;10.272;2024-01-27T02:03:28;11.60;;;3.23;;
50281;SDS011;36176;51.506;10.272;2024-01-27T02:05:56;9.43;;;2.93;;
50281;SDS011;36176;51.506;10.272;2024-01-27T02:08:23;16.80;;;3.10;;
50281;SDS011;36176;51.506;10.272;2024-01-27T02:10:50;11.13;;;3.40;;
50281;SDS011;36176;51.506;10.272;2024-01-27T02:13:18;12.53;;;3.00;;
50281;SDS011;36176;51.506;10.272;2024-01-27T02:15:47;10.70;;;3.10;;
50281;SDS011;36176;51.506;10.272;2024-01-27T02:18:14;9.63;;;3.23;;
50281;SDS011;36176;51.506;10.272;2024-01-27T02:20:43;11.50;;;3.30;;
50281;SDS011;36176;51.506;10.272;2024-01-27T02:23:10;12.33;;;3.20;;
50281;SDS011;36176;51.506;10.272;2024-01-27T02:25:37;8.93;;;3.20;;
50281;SDS011;36176;51.506;10.272;2024-01-27T02:28:04;8.90;;;2.90;;
50281;SDS011;36176;51.506;10.272;2024-01-27T02:30:31;9.70;;;3.03;;
50281;SDS011;36176;51.506;10.272;2024-01-27T02:32:59;11.57;;;3.10;;
50281;SDS011;36176;51.506;10.272;2024-01-27T02:35:26;10.37;;;3.27;;
50281;SDS011;36176;51.506;10.272;2024-01-27T02:37:53;11.70;;;3.30;;
50281;SDS011;36176;51.506;10.272;2024-01-27T02:40:20;9.97;;;3.60;;
50281;SDS011;36176;51.506;10.272;2024-01-27T02:42:47;8.67;;;3.37;;
50281;SDS011;36176;51.506;10.272;2024-01-27T02:45:14;14.37;;;3.67;;
50281;SDS011;36176;51.506;10.272;2024-01-27T02:47:45;9.93;;;3.07;;
50281;SDS011;36176;51.506;10.272;2024-01-27T02:50:12;13.63;;;3.63;;
50281;SDS011;36176;51.506;10.272;2024-01-27T02:52:39;10.53;;;3.53;;
50281;SDS011;36176;51.506;10.272;2024-01-27T02:55:07;11.77;;;3.30;;
50281;SDS011;36176;51.506;10.272;2024-01-27T02:57:34;9.07;;;3.50;;
50281;SDS011;36176;51.506;10.272;2024-01-27T03:00:01;10.47;;;3.53;;
50281;SDS011;36176;51.506;10.272;2024-01-27T03:02:29;10.80;;;3.50;;
50281;SDS011;36176;51.506;10.272;2024-01-27T03:04:56;11.73;;;3.67;;
50281;SDS011;36176;51.506;10.272;2024-01-27T03:07:23;10.43;;;3.23;;
50281;SDS011;36176;51.506;10.272;2024-01-27T03:09:50;10.17;;;3.50;;
50281;SDS011;36176;51.506;10.272;2024-01-27T03:12:17;11.70;;;3.83;;
50281;SDS011;36176;51.506;10.272;2024-01-27T03:14:45;14.40;;;3.87;;
50281;SDS011;36176;51.506;10.272;2024-01-27T03:17:12;9.87;;;3.40;;
50281;SDS011;36176;51.506;10.272;2024-01-27T03:19:39;10.23;;;3.37;;
50281;SDS011;36176;51.506;10.272;2024-01-27T03:22:06;11.37;;;3.50;;
50281;SDS011;36176;51.506;10.272;2024-01-27T03:24:33;10.60;;;3.67;;
50281;SDS011;36176;51.506;10.272;2024-01-27T03:27:01;13.87;;;3.80;;
50281;SDS011;36176;51.506;10.272;2024-01-27T03:29:28;16.20;;;3.77;;
50281;SDS011;36176;51.506;10.272;2024-01-27T03:31:55;10.97;;;3.50;;
50281;SDS011;36176;51.506;10.272;2024-01-27T03:34:22;14.43;;;4.20;;
50281;SDS011;36176;51.506;10.272;2024-01-27T03:36:49;11.57;;;3.60;;
50281;SDS011;36176;51.506;10.272;2024-01-27T03:39:16;9.87;;;3.40;;
50281;SDS011;36176;51.506;10.272;2024-01-27T03:41:44;8.40;;;3.57;;
50281;SDS011;36176;51.506;10.272;2024-01-27T03:44:11;9.83;;;3.77;;
50281;SDS011;36176;51.506;10.272;2024-01-27T03:46:38;12.20;;;3.73;;
50281;SDS011;36176;51.506;10.272;2024-01-27T03:49:05;12.33;;;4.00;;
50281;SDS011;36176;51.506;10.272;2024-01-27T03:51:32;13.97;;;4.13;;
50281;SDS011;36176;51.506;10.272;2024-01-27T03:54:00;13.07;;;4.50;;
50281;SDS011;36176;51.506;10.272;2024-01-27T03:56:27;9.97;;;4.20;;
50281;SDS011;36176;51.506;10.272;2024-01-27T03:58:54;13.57;;;4.57;;
50281;SDS011;36176;51.506;10.272;2024-01-27T04:01:21;11.27;;;4.03;;
50281;SDS011;36176;51.506;10.272;2024-01-27T04:03:49;9.63;;;4.10;;
50281;SDS011;36176;51.506;10.272;2024-01-27T04:06:18;12.67;;;4.17;;
50281;SDS011;36176;51.506;10.272;2024-01-27T04:08:45;12.30;;;4.50;;
50281;SDS011;36176;51.506;10.272;2024-01-27T04:11:22;13.00;;;4.50;;
50281;SDS011;36176;51.506;10.272;2024-01-27T04:13:50;13.77;;;4.57;;
50281;SDS011;36176;51.506;10.272;2024-01-27T04:16:17;12.00;;;4.80;;
50281;SDS011;36176;51.506;10.272;2024-01-27T04:18:44;11.07;;;4.73;;
50281;SDS011;36176;51.506;10.272;2024-01-27T04:21:12;11.90;;;4.83;;
50281;SDS011;36176;51.506;10.272;2024-01-27T04:23:39;12.23;;;5.00;;
50281;SDS011;36176;51.506;10.272;2024-01-27T04:26:06;12.13;;;5.10;;
50281;SDS011;36176;51.506;10.272;2024-01-27T04:28:33;13.13;;;4.67;;
50281;SDS011;36176;51.506;10.272;2024-01-27T04:31:01;15.17;;;5.67;;
50281;SDS011;36176;51.506;10.272;2024-01-27T04:33:28;13.30;;;5.40;;
50281;SDS011;36176;51.506;10.272;2024-01-27T04:35:55;12.67;;;4.93;;
50281;SDS011;36176;51.506;10.272;2024-01-27T04:38:26;14.27;;;5.10;;
50281;SDS011;36176;51.506;10.272;2024-01-27T04:40:53;13.37;;;5.60;;
50281;SDS011;36176;51.506;10.272;2024-01-27T04:43:20;14.80;;;5.47;;
50281;SDS011;36176;51.506;10.272;2024-01-27T04:45:47;11.47;;;5.07;;
50281;SDS011;36176;51.506;10.272;2024-01-27T04:48:15;13.50;;;5.40;;
50281;SDS011;36176;51.506;10.272;2024-01-27T04:50:42;14.70;;;5.87;;
50281;SDS011;36176;51.506;10.272;2024-01-27T04:53:10;14.63;;;5.30;;
50281;SDS011;36176;51.506;10.272;2024-01-27T04:55:37;14.80;;;5.70;;
50281;SDS011;36176;51.506;10.272;2024-01-27T04:58:04;14.57;;;6.10;;
50281;SDS011;36176;51.506;10.272;2024-01-27T05:00:33;14.77;;;6.37;;
50281;SDS011;36176;51.506;10.272;2024-01-27T05:03:01;17.90;;;5.60;;
50281;SDS011;36176;51.506;10.272;2024-01-27T05:05:28;14.83;;;6.03;;
50281;SDS011;36176;51.506;10.272;2024-01-27T05:07:57;15.77;;;6.10;;
50281;SDS011;36176;51.506;10.272;2024-01-27T05:10:25;16.63;;;6.60;;
50281;SDS011;36176;51.506;10.272;2024-01-27T05:12:52;15.40;;;7.57;;
50281;SDS011;36176;51.506;10.272;2024-01-27T05:15:19;15.27;;;8.03;;
50281;SDS011;36176;51.506;10.272;2024-01-27T05:17:46;18.60;;;7.93;;
50281;SDS011;36176;51.506;10.272;2024-01-27T05:20:14;15.60;;;8.33;;
50281;SDS011;36176;51.506;10.272;2024-01-27T05:22:41;15.50;;;8.70;;
50281;SDS011;36176;51.506;10.272;2024-01-27T05:25:08;13.60;;;7.80;;
50281;SDS011;36176;51.506;10.272;2024-01-27T05:27:37;13.83;;;8.70;;
50281;SDS011;36176;51.506;10.272;2024-01-27T05:30:08;17.37;;;8.97;;
50281;SDS011;36176;51.506;10.272;2024-01-27T05:32:35;14.67;;;8.80;;
50281;SDS011;36176;51.506;10.272;2024-01-27T05:35:02;19.13;;;8.63;;
50281;SDS011;36176;51.506;10.272;2024-01-27T05:37:29;16.97;;;8.50;;
50281;SDS011;36176;51.506;10.272;2024-01-27T05:39:57;13.80;;;9.00;;
50281;SDS011;36176;51.506;10.272;2024-01-27T05:42:30;14.77;;;8.53;;
50281;SDS011;36176;51.506;10.272;2024-01-27T05:44:57;15.97;;;8.97;;
50281;SDS011;36176;51.506;10.272;2024-01-27T05:47:24;15.67;;;9.63;;
50281;SDS011;36176;51.506;10.272;2024-01-27T05:49:51;17.20;;;9.87;;
50281;SDS011;36176;51.506;10.272;2024-01-27T05:52:19;18.87;;;10.50;;
50281;SDS011;36176;51.506;10.272;2024-01-27T05:54:51;21.70;;;12.60;;
50281;SDS011;36176;51.506;10.272;2024-01-27T05:57:19;21.67;;;13.70;;
50281;SDS011;36176;51.506;10.272;2024-01-27T05:59:48;20.33;;;12.63;;
50281;SDS011;36176;51.506;10.272;2024-01-27T06:02:15;19.93;;;12.33;;
50281;SDS011;36176;51.506;10.272;2024-01-27T06:04:42;20.37;;;12.60;;
50281;SDS011;36176;51.506;10.272;2024-01-27T06:07:09;23.93;;;13.43;;
50281;SDS011;36176;51.506;10.272;2024-01-27T06:09:37;22.53;;;12.27;;
50281;SDS011;36176;51.506;10.272;2024-01-27T06:12:04;20.33;;;13.10;;
50281;SDS011;36176;51.506;10.272;2024-01-27T06:14:32;20.33;;;12.73;;
50281;SDS011;36176;51.506;10.272;2024-01-27T06:16:59;19.93;;;11.97;;
50281;SDS011;36176;51.506;10.272;2024-01-27T06:19:27;19.53;;;12.07;;
50281;SDS011;36176;51.506;10.272;2024-01-27T06:21:55;20.93;;;11.33;;
50281;SDS011;36176;51.506;10.272;2024-01-27T06:24:22;19.33;;;11.83;;
50281;SDS011;36176;51.506;10.272;2024-01-27T06:26:49;19.67;;;12.40;;
50281;SDS011;36176;51.506;10.272;2024-01-27T06:29:17;20.63;;;11.83;;
50281;SDS011;36176;51.506;10.272;2024-01-27T06:31:44;21.20;;;11.77;;
50281;SDS011;36176;51.506;10.272;2024-01-27T06:34:11;20.80;;;12.73;;
50281;SDS011;36176;51.506;10.272;2024-01-27T06:36:38;21.27;;;12.27;;
50281;SDS011;36176;51.506;10.272;2024-01-27T06:39:05;20.93;;;12.43;;
50281;SDS011;36176;51.506;10.272;2024-01-27T06:41:33;21.50;;;12.77;;
50281;SDS011;36176;51.506;10.272;2024-01-27T06:44:00;20.73;;;13.90;;
50281;SDS011;36176;51.506;10.272;2024-01-27T06:46:27;21.87;;;13.10;;
50281;SDS011;36176;51.506;10.272;2024-01-27T06:48:55;19.87;;;13.97;;
50281;SDS011;36176;51.506;10.272;2024-01-27T06:51:22;21.50;;;13.07;;
50281;SDS011;36176;51.506;10.272;2024-01-27T06:53:49;18.60;;;12.70;;
50281;SDS011;36176;51.506;10.272;2024-01-27T06:56:16;19.30;;;13.70;;
50281;SDS011;36176;51.506;10.272;2024-01-27T06:58:43;19.33;;;13.70;;
50281;SDS011;36176;51.506;10.272;2024-01-27T07:01:11;21.30;;;13.20;;
50281;SDS011;36176;51.506;10.272;2024-01-27T07:03:38;21.07;;;14.83;;
50281;SDS011;36176;51.506;10.272;2024-01-27T07:06:05;19.47;;;13.60;;
50281;SDS011;36176;51.506;10.272;2024-01-27T07:08:32;20.73;;;14.70;;
50281;SDS011;36176;51.506;10.272;2024-01-27T07:11:05;25.73;;;15.40;;
50281;SDS011;36176;51.506;10.272;2024-01-27T07:13:32;31.53;;;18.07;;
50281;SDS011;36176;51.506;10.272;2024-01-27T07:15:59;25.27;;;16.70;;
50281;SDS011;36176;51.506;10.272;2024-01-27T07:18:26;23.37;;;15.10;;
50281;SDS011;36176;51.506;10.272;2024-01-27T07:20:54;20.63;;;14.50;;
50281;SDS011;36176;51.506;10.272;2024-01-27T07:23:21;22.47;;;15.73;;
50281;SDS011;36176;51.506;10.272;2024-01-27T07:25:48;27.77;;;16.17;;
50281;SDS011;36176;51.506;10.272;2024-01-27T07:28:15;26.07;;;18.10;;
50281;SDS011;36176;51.506;10.272;2024-01-27T07:30:42;23.50;;;15.23;;
50281;SDS011;36176;51.506;10.272;2024-01-27T07:33:09;20.27;;;12.23;;
50281;SDS011;36176;51.506;10.272;2024-01-27T07:35:37;20.60;;;11.60;;
50281;SDS011;36176;51.506;10.272;2024-01-27T07:38:04;20.47;;;11.93;;
50281;SDS011;36176;51.506;10.272;2024-01-27T07:40:31;32.97;;;17.00;;
50281;SDS011;36176;51.506;10.272;2024-01-27T07:42:58;21.33;;;12.17;;
50281;SDS011;36176;51.506;10.272;2024-01-27T07:45:25;17.97;;;9.27;;
50281;SDS011;36176;51.506;10.272;2024-01-27T07:47:52;15.80;;;8.90;;
50281;SDS011;36176;51.506;10.272;2024-01-27T07:50:19;14.37;;;8.70;;
50281;SDS011;36176;51.506;10.272;2024-01-27T07:52:47;28.90;;;15.97;;
50281;SDS011;36176;51.506;10.272;2024-01-27T07:55:14;19.67;;;10.23;;
50281;SDS011;36176;51.506;10.272;2024-01-27T07:57:41;17.50;;;9.07;;
50281;SDS011;36176;51.506;10.272;2024-01-27T08:00:09;17.60;;;7.90;;
50281;SDS011;36176;51.506;10.272;2024-01-27T08:02:36;14.20;;;7.67;;
50281;SDS011;36176;51.506;10.272;2024-01-27T08:05:03;21.60;;;7.90;;
50281;SDS011;36176;51.506;10.272;2024-01-27T08:07:31;18.47;;;7.80;;
50281;SDS011;36176;51.506;10.272;2024-01-27T08:09:58;13.57;;;7.40;;
50281;SDS011;36176;51.506;10.272;2024-01-27T08:12:25;15.20;;;6.90;;
50281;SDS011;36176;51.506;10.272;2024-01-27T08:14:52;15.77;;;7.17;;
50281;SDS011;36176;51.506;10.272;2024-01-27T08:17:19;14.93;;;6.43;;
50281;SDS011;36176;51.506;10.272;2024-01-27T08:19:46;14.27;;;6.00;;
50281;SDS011;36176;51.506;10.272;2024-01-27T08:22:14;13.97;;;6.37;;
50281;SDS011;36176;51.506;10.272;2024-01-27T08:24:41;19.50;;;8.10;;
50281;SDS011;36176;51.506;10.272;2024-01-27T08:27:09;16.73;;;10.77;;
50281;SDS011;36176;51.506;10.272;2024-01-27T08:29:36;20.10;;;9.37;;
50281;SDS011;36176;51.506;10.272;2024-01-27T08:32:03;13.73;;;6.90;;
50281;SDS011;36176;51.506;10.272;2024-01-27T08:34:30;11.07;;;5.63;;
50281;SDS011;36176;51.506;10.272;2024-01-27T08:36:59;13.57;;;5.60;;
50281;SDS011;36176;51.506;10.272;2024-01-27T08:39:27;11.37;;;5.20;;
50281;SDS011;36176;51.506;10.272;2024-01-27T08:41:55;14.73;;;5.80;;
50281;SDS011;36176;51.506;10.272;2024-01-27T08:44:22;13.07;;;5.80;;
50281;SDS011;36176;51.506;10.272;2024-01-27T08:46:49;16.07;;;6.57;;
50281;SDS011;36176;51.506;10.272;2024-01-27T08:49:17;14.73;;;5.47;;
50281;SDS011;36176;51.506;10.272;2024-01-27T08:51:44;11.63;;;5.00;;
50281;SDS011;36176;51.506;10.272;2024-01-27T08:54:12;13.13;;;5.57;;
50281;SDS011;36176;51.506;10.272;2024-01-27T08:56:40;10.90;;;5.40;;
50281;SDS011;36176;51.506;10.272;2024-01-27T08:59:10;13.30;;;5.50;;
50281;SDS011;36176;51.506;10.272;2024-01-27T09:01:37;11.97;;;5.00;;
50281;SDS011;36176;51.506;10.272;2024-01-27T09:04:04;10.80;;;4.60;;
50281;SDS011;36176;51.506;10.272;2024-01-27T09:06:32;14.37;;;4.97;;
50281;SDS011;36176;51.506;10.272;2024-01-27T09:08:59;12.00;;;4.80;;
50281;SDS011;36176;51.506;10.272;2024-01-27T09:11:26;12.90;;;5.20;;
50281;SDS011;36176;51.506;10.272;2024-01-27T09:13:54;12.90;;;4.77;;
50281;SDS011;36176;51.506;10.272;2024-01-27T09:16:21;9.93;;;4.63;;
50281;SDS011;36176;51.506;10.272;2024-01-27T09:18:48;11.03;;;4.60;;
50281;SDS011;36176;51.506;10.272;2024-01-27T09:21:16;11.13;;;4.63;;
50281;SDS011;36176;51.506;10.272;2024-01-27T09:23:45;13.90;;;5.00;;
50281;SDS011;36176;51.506;10.272;2024-01-27T09:26:13;9.50;;;4.60;;
50281;SDS011;36176;51.506;10.272;2024-01-27T09:28:40;13.73;;;4.63;;
50281;SDS011;36176;51.506;10.272;2024-01-27T09:31:08;12.13;;;4.47;;
50281;SDS011;36176;51.506;10.272;2024-01-27T09:33:37;11.37;;;4.83;;
50281;SDS011;36176;51.506;10.272;2024-01-27T09:36:04;10.27;;;4.10;;
50281;SDS011;36176;51.506;10.272;2024-01-27T09:38:32;12.07;;;5.03;;
50281;SDS011;36176;51.506;10.272;2024-01-27T09:41:00;11.93;;;4.77;;
50281;SDS011;36176;51.506;10.272;2024-01-27T09:43:27;11.13;;;4.43;;
50281;SDS011;36176;51.506;10.272;2024-01-27T09:45:55;10.97;;;4.50;;
50281;SDS011;36176;51.506;10.272;2024-01-27T09:48:26;11.70;;;4.70;;
50281;SDS011;36176;51.506;10.272;2024-01-27T09:50:54;11.17;;;4.60;;
50281;SDS011;36176;51.506;10.272;2024-01-27T09:53:22;9.33;;;3.80;;
50281;SDS011;36176;51.506;10.272;2024-01-27T09:55:50;9.23;;;4.13;;
50281;SDS011;36176;51.506;10.272;2024-01-27T09:58:17;10.63;;;4.37;;
50281;SDS011;36176;51.506;10.272;2024-01-27T10:00:44;9.37;;;4.13;;
50281;SDS011;36176;51.506;10.272;2024-01-27T10:03:12;13.93;;;4.37;;
50281;SDS011;36176;51.506;10.272;2024-01-27T10:05:41;11.73;;;3.80;;
50281;SDS011;36176;51.506;10.272;2024-01-27T10:08:09;11.30;;;3.97;;
50281;SDS011;36176;51.506;10.272;2024-01-27T10:10:36;11.37;;;4.20;;
50281;SDS011;36176;51.506;10.272;2024-01-27T10:13:04;11.20;;;4.07;;
50281;SDS011;36176;51.506;10.272;2024-01-27T10:15:31;8.40;;;3.83;;
50281;SDS011;36176;51.506;10.272;2024-01-27T10:18:08;11.00;;;4.00;;
50281;SDS011;36176;51.506;10.272;2024-01-27T10:20:36;10.93;;;4.20;;
50281;SDS011;36176;51.506;10.272;2024-01-27T10:23:12;9.50;;;3.90;;
50281;SDS011;36176;51.506;10.272;2024-01-27T10:25:40;12.10;;;3.83;;
50281;SDS011;36176;51.506;10.272;2024-01-27T10:28:10;12.07;;;4.40;;
50281;SDS011;36176;51.506;10.272;2024-01-27T10:30:37;9.97;;;4.07;;
50281;SDS011;36176;51.506;10.272;2024-01-27T10:33:07;10.43;;;4.27;;
50281;SDS011;36176;51.506;10.272;2024-01-27T10:35:35;8.47;;;3.77;;
50281;SDS011;36176;51.506;10.272;2024-01-27T10:38:03;11.80;;;4.50;;
50281;SDS011;36176;51.506;10.272;2024-01-27T10:40:30;10.40;;;4.20;;
50281;SDS011;36176;51.506;10.272;2024-01-27T10:43:02;10.03;;;4.33;;
50281;SDS011;36176;51.506;10.272;2024-01-27T10:45:34;11.13;;;3.87;;
50281;SDS011;36176;51.506;10.272;2024-01-27T10:48:03;10.60;;;3.87;;
50281;SDS011;36176;51.506;10.272;2024-01-27T10:50:35;9.77;;;3.90;;
50281;SDS011;36176;51.506;10.272;2024-01-27T10:53:09;9.67;;;4.00;;
50281;SDS011;36176;51.506;10.272;2024-01-27T10:55:41;9.30;;;3.80;;
50281;SDS011;36176;51.506;10.272;2024-01-27T10:58:11;17.03;;;4.23;;
50281;SDS011;36176;51.506;10.272;2024-01-27T11:00:39;10.83;;;3.80;;
50281;SDS011;36176;51.506;10.272;2024-01-27T11:03:12;10.87;;;3.93;;
50281;SDS011;36176;51.506;10.272;2024-01-27T11:05:40;10.07;;;4.20;;
50281;SDS011;36176;51.506;10.272;2024-01-27T11:08:08;11.13;;;4.10;;
50281;SDS011;36176;51.506;10.272;2024-01-27T11:10:36;10.30;;;3.80;;
50281;SDS011;36176;51.506;10.272;2024-01-27T11:13:04;10.73;;;3.93;;
50281;SDS011;36176;51.506;10.272;2024-01-27T11:15:31;12.27;;;4.20;;
50281;SDS011;36176;51.506;10.272;2024-01-27T11:17:59;9.57;;;3.77;;
50281;SDS011;36176;51.506;10.272;2024-01-27T11:20:33;11.03;;;4.07;;
50281;SDS011;36176;51.506;10.272;2024-01-27T11:23:08;11.17;;;4.00;;
50281;SDS011;36176;51.506;10.272;2024-01-27T11:25:36;10.47;;;3.80;;
50281;SDS011;36176;51.506;10.272;2024-01-27T11:28:10;9.63;;;3.57;;
50281;SDS011;36176;51.506;10.272;2024-01-27T11:30:47;10.73;;;3.78;;
50281;SDS011;36176;51.506;10.272;2024-01-27T11:33:15;8.80;;;3.72;;
50281;SDS011;36176;51.506;10.272;2024-01-27T11:35:42;9.90;;;3.83;;
50281;SDS011;36176;51.506;10.272;2024-01-27T11:38:09;8.27;;;3.57;;
50281;SDS011;36176;51.506;10.272;2024-01-27T11:40:46;9.20;;;3.47;;
50281;SDS011;36176;51.506;10.272;2024-01-27T11:43:13;9.57;;;3.57;;
50281;SDS011;36176;51.506;10.272;2024-01-27T11:45:41;13.30;;;3.50;;
50281;SDS011;36176;51.506;10.272;2024-01-27T11:48:08;8.00;;;3.13;;
50281;SDS011;36176;51.506;10.272;2024-01-27T11:50:36;8.10;;;3.27;;
50281;SDS011;36176;51.506;10.272;2024-01-27T11:53:03;10.10;;;3.83;;
50281;SDS011;36176;51.506;10.272;2024-01-27T11:55:34;8.43;;;3.43;;
50281;SDS011;36176;51.506;10.272;2024-01-27T11:58:01;10.17;;;3.50;;
50281;SDS011;36176;51.506;10.272;2024-01-27T12:00:28;8.17;;;3.23;;
50281;SDS011;36176;51.506;10.272;2024-01-27T12:02:56;10.10;;;3.67;;
50281;SDS011;36176;51.506;10.272;2024-01-27T12:05:24;7.57;;;3.03;;
50281;SDS011;36176;51.506;10.272;2024-01-27T12:07:53;12.30;;;3.40;;
50281;SDS011;36176;51.506;10.272;2024-01-27T12:10:20;9.27;;;3.17;;
50281;SDS011;36176;51.506;10.272;2024-01-27T12:12:49;7.00;;;3.07;;
50281;SDS011;36176;51.506;10.272;2024-01-27T12:15:17;7.27;;;3.30;;
50281;SDS011;36176;51.506;10.272;2024-01-27T12:17:48;11.17;;;3.80;;
50281;SDS011;36176;51.506;10.272;2024-01-27T12:20:17;9.87;;;3.10;;
50281;SDS011;36176;51.506;10.272;2024-01-27T12:22:44;6.03;;;3.13;;
50281;SDS011;36176;51.506;10.272;2024-01-27T12:25:12;7.77;;;3.20;;
50281;SDS011;36176;51.506;10.272;2024-01-27T12:27:39;8.60;;;3.40;;
50281;SDS011;36176;51.506;10.272;2024-01-27T12:30:07;9.23;;;3.10;;
50281;SDS011;36176;51.506;10.272;2024-01-27T12:32:38;10.20;;;3.63;;
50281;SDS011;36176;51.506;10.272;2024-01-27T12:35:05;8.23;;;3.07;;
50281;SDS011;36176;51.506;10.272;2024-01-27T12:37:34;11.77;;;3.63;;
50281;SDS011;36176;51.506;10.272;2024-01-27T12:40:03;11.17;;;3.60;;
50281;SDS011;36176;51.506;10.272;2024-01-27T12:42:48;8.70;;;3.47;;
50281;SDS011;36176;51.506;10.272;2024-01-27T12:45:15;10.37;;;3.40;;
50281;SDS011;36176;51.506;10.272;2024-01-27T12:47:42;8.77;;;3.33;;
50281;SDS011;36176;51.506;10.272;2024-01-27T12:50:09;10.30;;;3.47;;
50281;SDS011;36176;51.506;10.272;2024-01-27T12:52:38;10.47;;;3.53;;
50281;SDS011;36176;51.506;10.272;2024-01-27T12:55:05;9.50;;;3.57;;
50281;SDS011;36176;51.506;10.272;2024-01-27T12:57:32;9.53;;;4.00;;
50281;SDS011;36176;51.506;10.272;2024-01-27T13:00:00;8.80;;;3.73;;
50281;SDS011;36176;51.506;10.272;2024-01-27T13:02:27;10.00;;;3.87;;
50281;SDS011;36176;51.506;10.272;2024-01-27T13:04:56;10.93;;;3.87;;
50281;SDS011;36176;51.506;10.272;2024-01-27T13:07:23;10.07;;;4.00;;
50281;SDS011;36176;51.506;10.272;2024-01-27T13:09:51;8.43;;;3.80;;
50281;SDS011;36176;51.506;10.272;2024-01-27T13:12:18;9.87;;;3.40;;
50281;SDS011;36176;51.506;10.272;2024-01-27T13:14:48;10.63;;;3.83;;
50281;SDS011;36176;51.506;10.272;2024-01-27T13:17:15;7.53;;;4.03;;
50281;SDS011;36176;51.506;10.272;2024-01-27T13:19:42;10.93;;;3.93;;
50281;SDS011;36176;51.506;10.272;2024-01-27T13:22:10;10.13;;;3.73;;
50281;SDS011;36176;51.506;10.272;2024-01-27T13:24:37;10.97;;;5.13;;
50281;SDS011;36176;51.506;10.272;2024-01-27T13:27:05;12.90;;;6.80;;
50281;SDS011;36176;51.506;10.272;2024-01-27T13:29:32;12.07;;;3.87;;
50281;SDS011;36176;51.506;10.272;2024-01-27T13:31:59;11.00;;;4.47;;
50281;SDS011;36176;51.506;10.272;2024-01-27T13:34:26;9.13;;;3.70;;
50281;SDS011;36176;51.506;10.272;2024-01-27T13:36:54;8.67;;;3.63;;
50281;SDS011;36176;51.506;10.272;2024-01-27T13:39:21;8.57;;;3.63;;
50281;SDS011;36176;51.506;10.272;2024-01-27T13:41:48;10.27;;;3.60;;
50281;SDS011;36176;51.506;10.272;2024-01-27T13:44:15;9.13;;;4.60;;
50281;SDS011;36176;51.506;10.272;2024-01-27T13:46:42;6.60;;;2.80;;
50281;SDS011;36176;51.506;10.272;2024-01-27T13:49:09;11.83;;;3.37;;
50281;SDS011;36176;51.506;10.272;2024-01-27T13:51:37;9.47;;;4.07;;
50281;SDS011;36176;51.506;10.272;2024-01-27T13:54:04;10.23;;;3.13;;
50281;SDS011;36176;51.506;10.272;2024-01-27T13:56:31;9.53;;;3.00;;
50281;SDS011;36176;51.506;10.272;2024-01-27T13:58:58;8.07;;;3.30;;
50281;SDS011;36176;51.506;10.272;2024-01-27T14:01:26;8.47;;;3.20;;
50281;SDS011;36176;51.506;10.272;2024-01-27T14:03:53;8.73;;;3.10;;
50281;SDS011;36176;51.506;10.272;2024-01-27T14:06:20;7.10;;;3.00;;
50281;SDS011;36176;51.506;10.272;2024-01-27T14:08:47;7.47;;;2.80;;
50281;SDS011;36176;51.506;10.272;2024-01-27T14:11:14;9.60;;;3.10;;
50281;SDS011;36176;51.506;10.272;2024-01-27T14:13:43;9.80;;;3.30;;
50281;SDS011;36176;51.506;10.272;2024-01-27T14:16:10;10.27;;;3.43;;
50281;SDS011;36176;51.506;10.272;2024-01-27T14:18:37;7.57;;;2.87;;
50281;SDS011;36176;51.506;10.272;2024-01-27T14:21:08;6.17;;;3.10;;
50281;SDS011;36176;51.506;10.272;2024-01-27T14:23:35;10.77;;;3.10;;
50281;SDS011;36176;51.506;10.272;2024-01-27T14:26:06;12.00;;;3.03;;
50281;SDS011;36176;51.506;10.272;2024-01-27T14:28:34;7.50;;;3.10;;